BONE21 ETAR-KIAD
Flight info
| Callsign | BONE21 |
|---|---|
| Flight time | N/A |
| Altitude | 60000 |
| Route | LIMGO N852 DIK M624 BUB L608 DENUT L610 GILDA M14 WESUL L980 LAM L610 HEMEL T420 BUZAD L10 DTY DCT SAPCO UN57 TNT UQ4 WAL L10 PENIL UL28 LELDO M145 BAGSO DCT ETARI/M081F360 NATF KODIK/N0467F360 DCT ANCER DCT FAWNS DCT SYR J59 PSB WAYNZ1 |
| Aircraft | B1/M-SDFGIRWY/S |
Departure
| Time | 2026-04-25 13:36 |
|---|---|
| Airport | Ramstein Air Base (ETAR) |
Arrival
| Time | N/A |
|---|---|
| Airport | Washington Dulles International Airport (KIAD) |
| Time | Latitude | Longitude | Altitude | Speed | Heading |
|---|---|---|---|---|---|
| 2026-04-25 13:30 | 49.43984 | 7.59525 | 783 ft | 0 kts | 185° |
| 2026-04-25 13:31 | 49.43982 | 7.59525 | 783 ft | 0 kts | 184° |
| 2026-04-25 13:31 | 49.43981 | 7.59525 | 783 ft | 0 kts | 188° |
| 2026-04-25 13:31 | 49.43978 | 7.59521 | 783 ft | 1 kts | 222° |
| 2026-04-25 13:32 | 49.43981 | 7.59456 | 783 ft | 18 kts | 277° |
| 2026-04-25 13:32 | 49.43998 | 7.59148 | 782 ft | 32 kts | 272° |
| 2026-04-25 13:32 | 49.43986 | 7.58822 | 780 ft | 29 kts | 266° |
| 2026-04-25 13:32 | 49.43973 | 7.58519 | 779 ft | 27 kts | 266° |
| 2026-04-25 13:33 | 49.43881 | 7.58370 | 778 ft | 17 kts | 184° |
| 2026-04-25 13:33 | 49.43784 | 7.58372 | 778 ft | 12 kts | 177° |
| 2026-04-25 13:33 | 49.43700 | 7.58378 | 778 ft | 14 kts | 181° |
| 2026-04-25 13:33 | 49.43642 | 7.58344 | 778 ft | 14 kts | 229° |
| 2026-04-25 13:34 | 49.43629 | 7.58145 | 777 ft | 14 kts | 307° |
| 2026-04-25 13:34 | 49.43636 | 7.58035 | 776 ft | 11 kts | 254° |
| 2026-04-25 13:34 | 49.43610 | 7.57864 | 776 ft | 22 kts | 262° |
| 2026-04-25 13:34 | 49.43591 | 7.57650 | 775 ft | 15 kts | 235° |
| 2026-04-25 13:35 | 49.43437 | 7.57705 | 775 ft | 37 kts | 144° |
| 2026-04-25 13:35 | 49.43259 | 7.57956 | 776 ft | 32 kts | 104° |
| 2026-04-25 13:35 | 49.43300 | 7.58437 | 774 ft | 69 kts | 81° |
| 2026-04-25 13:35 | 49.43399 | 7.59466 | 782 ft | 124 kts | 81° |
| 2026-04-25 13:36 | 49.43579 | 7.61030 | 789 ft | 171 kts | 81° |
| 2026-04-25 13:36 | 49.43786 | 7.63020 | 978 ft | 200 kts | 78° |
| 2026-04-25 13:36 | 49.44003 | 7.65178 | 1336 ft | 216 kts | 83° |
| 2026-04-25 13:36 | 49.44151 | 7.67552 | 1928 ft | 220 kts | 71° |
| 2026-04-25 13:37 | 49.44665 | 7.69887 | 2301 ft | 246 kts | 66° |
| 2026-04-25 13:37 | 49.45495 | 7.72237 | 2688 ft | 254 kts | 51° |
| 2026-04-25 13:37 | 49.46681 | 7.74207 | 3471 ft | 246 kts | 42° |
| 2026-04-25 13:37 | 49.47881 | 7.76022 | 4269 ft | 241 kts | 48° |
| 2026-04-25 13:38 | 49.48954 | 7.78005 | 5125 ft | 243 kts | 48° |
| 2026-04-25 13:38 | 49.50063 | 7.80113 | 5927 ft | 261 kts | 49° |
| 2026-04-25 13:38 | 49.51204 | 7.82352 | 6776 ft | 271 kts | 50° |
| 2026-04-25 13:38 | 49.52366 | 7.84683 | 7525 ft | 277 kts | 50° |
| 2026-04-25 13:39 | 49.53545 | 7.87074 | 8295 ft | 283 kts | 51° |
| 2026-04-25 13:39 | 49.54719 | 7.89540 | 9100 ft | 288 kts | 54° |
| 2026-04-25 13:39 | 49.55110 | 7.92560 | 9855 ft | 301 kts | 101° |
| 2026-04-25 13:39 | 49.53970 | 7.95222 | 10657 ft | 306 kts | 141° |
| 2026-04-25 13:40 | 49.52137 | 7.96880 | 11403 ft | 308 kts | 153° |
| 2026-04-25 13:40 | 49.50261 | 7.98518 | 12158 ft | 311 kts | 152° |
| 2026-04-25 13:40 | 49.48368 | 8.00136 | 12931 ft | 312 kts | 152° |
| 2026-04-25 13:40 | 49.46514 | 8.01874 | 13712 ft | 312 kts | 149° |
| 2026-04-25 13:41 | 49.44686 | 8.03652 | 14444 ft | 311 kts | 149° |
| 2026-04-25 13:41 | 49.42871 | 8.05451 | 15161 ft | 309 kts | 148° |
| 2026-04-25 13:41 | 49.41101 | 8.07230 | 15863 ft | 309 kts | 148° |
| 2026-04-25 13:41 | 49.39222 | 8.09133 | 16241 ft | 347 kts | 148° |
| 2026-04-25 13:42 | 49.37021 | 8.11378 | 16447 ft | 416 kts | 147° |
| 2026-04-25 13:42 | 49.34416 | 8.14043 | 16553 ft | 480 kts | 147° |
| 2026-04-25 13:42 | 49.31491 | 8.16930 | 16582 ft | 511 kts | 152° |
| 2026-04-25 13:42 | 49.27916 | 8.18423 | 16599 ft | 553 kts | 181° |
| 2026-04-25 13:43 | 49.24294 | 8.17037 | 17387 ft | 545 kts | 210° |
| 2026-04-25 13:43 | 49.21461 | 8.13327 | 18238 ft | 543 kts | 236° |
| 2026-04-25 13:43 | 49.19976 | 8.08114 | 19016 ft | 540 kts | 261° |
| 2026-04-25 13:43 | 49.20123 | 8.02433 | 19789 ft | 539 kts | 287° |
| 2026-04-25 13:44 | 49.21887 | 7.97395 | 20608 ft | 540 kts | 310° |
| 2026-04-25 13:44 | 49.24485 | 7.93163 | 21373 ft | 549 kts | 310° |
| 2026-04-25 13:44 | 49.26128 | 7.87926 | 22099 ft | 558 kts | 283° |
| 2026-04-25 13:44 | 49.26529 | 7.81976 | 22913 ft | 563 kts | 276° |
| 2026-04-25 13:45 | 49.26929 | 7.76074 | 23720 ft | 556 kts | 279° |
| 2026-04-25 13:45 | 49.27521 | 7.70175 | 24421 ft | 548 kts | 282° |
| 2026-04-25 13:45 | 49.28172 | 7.64405 | 25124 ft | 561 kts | 283° |
| 2026-04-25 13:45 | 49.29177 | 7.58652 | 25857 ft | 565 kts | 289° |
| 2026-04-25 13:46 | 49.30239 | 7.52847 | 26603 ft | 558 kts | 288° |
| 2026-04-25 13:46 | 49.31281 | 7.47322 | 27359 ft | 543 kts | 288° |
| 2026-04-25 13:46 | 49.32343 | 7.41683 | 28145 ft | 547 kts | 288° |
| 2026-04-25 13:46 | 49.33414 | 7.36012 | 28967 ft | 561 kts | 288° |
| 2026-04-25 13:47 | 49.34497 | 7.30299 | 29820 ft | 563 kts | 288° |
| 2026-04-25 13:47 | 49.35608 | 7.24488 | 30597 ft | 566 kts | 288° |
| 2026-04-25 13:47 | 49.36730 | 7.18657 | 31355 ft | 577 kts | 288° |
| 2026-04-25 13:47 | 49.37831 | 7.12913 | 32087 ft | 534 kts | 288° |
| 2026-04-25 13:48 | 49.38839 | 7.07671 | 32857 ft | 502 kts | 289° |
| 2026-04-25 13:48 | 49.40422 | 7.02896 | 33719 ft | 508 kts | 311° |
| 2026-04-25 13:48 | 49.43104 | 6.99258 | 34546 ft | 524 kts | 321° |
| 2026-04-25 13:48 | 49.45646 | 6.95159 | 35260 ft | 538 kts | 304° |
| 2026-04-25 13:49 | 49.47427 | 6.90392 | 36005 ft | 512 kts | 297° |
| 2026-04-25 13:49 | 49.48793 | 6.85211 | 36789 ft | 523 kts | 289° |
| 2026-04-25 13:49 | 49.50004 | 6.79853 | 37526 ft | 538 kts | 290° |
| 2026-04-25 13:49 | 49.51224 | 6.74413 | 37864 ft | 532 kts | 289° |
| 2026-04-25 13:50 | 49.52411 | 6.69061 | 38004 ft | 539 kts | 289° |
| 2026-04-25 13:50 | 49.54789 | 6.58204 | 38096 ft | 537 kts | 289° |
| 2026-04-25 13:51 | 49.57300 | 6.47413 | 38123 ft | 536 kts | 296° |
| 2026-04-25 13:51 | 49.60695 | 6.37223 | 38123 ft | 536 kts | 297° |
| 2026-04-25 13:52 | 49.64951 | 6.27990 | 38204 ft | 539 kts | 323° |
| 2026-04-25 13:52 | 49.68248 | 6.25248 | 38207 ft | 538 kts | 336° |
| 2026-04-25 13:52 | 49.71605 | 6.22953 | 39000 ft | 510 kts | 334° |
| 2026-04-25 13:52 | 49.74800 | 6.20743 | 39712 ft | 503 kts | 335° |
| 2026-04-25 13:53 | 49.78016 | 6.18537 | 40440 ft | 509 kts | 335° |
| 2026-04-25 13:53 | 49.81280 | 6.16290 | 41201 ft | 516 kts | 335° |
| 2026-04-25 13:53 | 49.84524 | 6.13838 | 41971 ft | 522 kts | 328° |
| 2026-04-25 13:53 | 49.87498 | 6.10582 | 42780 ft | 527 kts | 316° |
| 2026-04-25 13:54 | 49.90186 | 6.06639 | 43654 ft | 536 kts | 317° |
| 2026-04-25 13:54 | 49.92939 | 6.02675 | 44490 ft | 546 kts | 316° |
| 2026-04-25 13:54 | 49.95740 | 5.98569 | 44870 ft | 562 kts | 316° |
| 2026-04-25 13:54 | 49.98623 | 5.94316 | 45017 ft | 579 kts | 315° |
| 2026-04-25 13:55 | 50.01569 | 5.89948 | 45078 ft | 586 kts | 315° |
| 2026-04-25 13:55 | 50.04415 | 5.85727 | 45450 ft | 557 kts | 315° |
| 2026-04-25 13:55 | 50.07126 | 5.81704 | 46228 ft | 521 kts | 315° |
| 2026-04-25 13:55 | 50.09653 | 5.77938 | 47006 ft | 489 kts | 315° |
| 2026-04-25 13:56 | 50.12058 | 5.74329 | 47820 ft | 471 kts | 315° |
| 2026-04-25 13:56 | 50.14368 | 5.70842 | 48611 ft | 453 kts | 315° |
| 2026-04-25 13:56 | 50.16587 | 5.67477 | 49404 ft | 437 kts | 315° |
| 2026-04-25 13:56 | 50.18730 | 5.64223 | 50170 ft | 424 kts | 315° |
| 2026-04-25 13:57 | 50.20830 | 5.61035 | 50957 ft | 417 kts | 315° |
| 2026-04-25 13:57 | 50.21531 | 5.59974 | 51219 ft | 415 kts | 315° |
| 2026-04-25 13:57 | 50.24975 | 5.54766 | 51950 ft | 419 kts | 315° |
| 2026-04-25 13:57 | 50.27088 | 5.51572 | 52079 ft | 426 kts | 315° |
| 2026-04-25 13:58 | 50.29234 | 5.48326 | 52144 ft | 429 kts | 315° |
| 2026-04-25 13:58 | 50.33520 | 5.41812 | 52173 ft | 430 kts | 315° |
| 2026-04-25 13:59 | 50.37796 | 5.35273 | 52173 ft | 430 kts | 314° |
| 2026-04-25 13:59 | 50.42069 | 5.28723 | 52178 ft | 430 kts | 314° |
| 2026-04-25 14:00 | 50.44903 | 5.24379 | 52178 ft | 430 kts | 314° |
| 2026-04-25 14:00 | 50.50621 | 5.15598 | 52183 ft | 430 kts | 314° |
| 2026-04-25 14:01 | 50.54894 | 5.09009 | 52171 ft | 430 kts | 314° |
| 2026-04-25 14:01 | 50.59135 | 5.02445 | 52182 ft | 431 kts | 314° |
| 2026-04-25 14:02 | 50.63434 | 4.95775 | 52182 ft | 431 kts | 314° |
| 2026-04-25 14:02 | 50.67674 | 4.89187 | 52185 ft | 431 kts | 314° |
| 2026-04-25 14:03 | 50.71946 | 4.82528 | 52189 ft | 432 kts | 314° |
| 2026-04-25 14:03 | 50.76216 | 4.75852 | 52180 ft | 432 kts | 314° |
| 2026-04-25 14:04 | 50.80494 | 4.69143 | 52186 ft | 435 kts | 314° |
| 2026-04-25 14:04 | 50.84805 | 4.62368 | 52191 ft | 438 kts | 314° |
| 2026-04-25 14:05 | 50.89203 | 4.55640 | 52185 ft | 440 kts | 314° |
| 2026-04-25 14:05 | 50.91065 | 4.51788 | 51688 ft | 448 kts | 300° |
| 2026-04-25 14:05 | 50.92683 | 4.47456 | 50906 ft | 465 kts | 301° |
| 2026-04-25 14:05 | 50.94386 | 4.43029 | 50502 ft | 472 kts | 300° |
| 2026-04-25 14:06 | 50.96090 | 4.38567 | 50325 ft | 475 kts | 300° |
| 2026-04-25 14:06 | 50.99512 | 4.29611 | 50219 ft | 475 kts | 300° |
| 2026-04-25 14:07 | 51.02935 | 4.20656 | 50204 ft | 473 kts | 300° |
| 2026-04-25 14:07 | 51.06333 | 4.11731 | 50196 ft | 471 kts | 300° |
| 2026-04-25 14:08 | 51.09707 | 4.02816 | 50192 ft | 469 kts | 300° |
| 2026-04-25 14:08 | 51.12496 | 3.95417 | 50194 ft | 468 kts | 300° |
| 2026-04-25 14:09 | 51.15839 | 3.86531 | 50195 ft | 467 kts | 300° |
| 2026-04-25 14:09 | 51.19175 | 3.77642 | 50192 ft | 467 kts | 300° |
| 2026-04-25 14:10 | 51.22577 | 3.68840 | 50199 ft | 466 kts | 304° |
| 2026-04-25 14:10 | 51.23983 | 3.64246 | 50237 ft | 461 kts | 284° |
| 2026-04-25 14:10 | 51.24599 | 3.59217 | 50220 ft | 461 kts | 281° |
| 2026-04-25 14:11 | 51.25865 | 3.49161 | 50204 ft | 463 kts | 281° |
| 2026-04-25 14:11 | 51.27150 | 3.39076 | 50203 ft | 463 kts | 281° |
| 2026-04-25 14:12 | 51.28427 | 3.28981 | 50198 ft | 464 kts | 281° |
| 2026-04-25 14:12 | 51.29728 | 3.18883 | 50199 ft | 464 kts | 282° |
| 2026-04-25 14:13 | 51.31045 | 3.08773 | 50209 ft | 464 kts | 282° |
| 2026-04-25 14:13 | 51.32336 | 2.98713 | 50215 ft | 465 kts | 281° |
| 2026-04-25 14:14 | 51.33609 | 2.88564 | 50110 ft | 471 kts | 281° |
| 2026-04-25 14:14 | 51.34263 | 2.83318 | 49270 ft | 491 kts | 281° |
| 2026-04-25 14:14 | 51.34948 | 2.77808 | 48475 ft | 520 kts | 281° |
| 2026-04-25 14:14 | 51.35680 | 2.71932 | 47792 ft | 556 kts | 281° |
| 2026-04-25 14:15 | 51.36456 | 2.65696 | 47463 ft | 584 kts | 281° |
| 2026-04-25 14:15 | 51.36998 | 2.61336 | 47368 ft | 600 kts | 281° |
| 2026-04-25 14:15 | 51.38096 | 2.52444 | 47271 ft | 627 kts | 281° |
| 2026-04-25 14:15 | 51.38944 | 2.45511 | 47318 ft | 641 kts | 281° |
| 2026-04-25 14:16 | 51.39800 | 2.38473 | 47851 ft | 648 kts | 281° |
| 2026-04-25 14:16 | 51.40662 | 2.31333 | 48054 ft | 658 kts | 281° |
| 2026-04-25 14:16 | 51.41531 | 2.24086 | 48147 ft | 668 kts | 281° |
| 2026-04-25 14:17 | 51.43297 | 2.09273 | 48206 ft | 685 kts | 281° |
| 2026-04-25 14:17 | 51.45085 | 1.94128 | 48213 ft | 697 kts | 280° |
| 2026-04-25 14:18 | 51.46880 | 1.78733 | 48216 ft | 706 kts | 280° |
| 2026-04-25 14:18 | 51.48673 | 1.63153 | 48215 ft | 713 kts | 280° |
| 2026-04-25 14:19 | 51.50455 | 1.47479 | 48217 ft | 717 kts | 280° |
| 2026-04-25 14:19 | 51.52230 | 1.31671 | 48215 ft | 720 kts | 280° |
| 2026-04-25 14:20 | 51.53694 | 1.18480 | 48213 ft | 723 kts | 279° |
| 2026-04-25 14:20 | 51.55734 | 0.99856 | 48217 ft | 725 kts | 279° |
| 2026-04-25 14:21 | 51.57461 | 0.83864 | 48209 ft | 727 kts | 279° |
| 2026-04-25 14:21 | 51.59170 | 0.67825 | 48210 ft | 729 kts | 279° |
| 2026-04-25 14:22 | 51.62365 | 0.52668 | 48699 ft | 725 kts | 307° |
| 2026-04-25 14:22 | 51.65773 | 0.46721 | 49035 ft | 723 kts | 314° |
| 2026-04-25 14:22 | 51.68864 | 0.40376 | 49140 ft | 720 kts | 297° |
| 2026-04-25 14:22 | 51.70448 | 0.32770 | 49237 ft | 719 kts | 277° |
| 2026-04-25 14:23 | 51.70327 | 0.24753 | 49289 ft | 720 kts | 257° |
| 2026-04-25 14:23 | 51.68530 | 0.17242 | 49331 ft | 724 kts | 239° |
| 2026-04-25 14:23 | 51.65700 | 0.10523 | 49279 ft | 725 kts | 238° |
| 2026-04-25 14:23 | 51.63717 | 0.03104 | 49260 ft | 725 kts | 258° |
| 2026-04-25 14:24 | 51.63414 | -0.04941 | 49280 ft | 725 kts | 277° |
| 2026-04-25 14:24 | 51.64808 | -0.12729 | 49331 ft | 728 kts | 296° |
| 2026-04-25 14:24 | 51.67729 | -0.19370 | 49357 ft | 732 kts | 315° |
| 2026-04-25 14:24 | 51.71863 | -0.24147 | 49384 ft | 737 kts | 333° |
| 2026-04-25 14:25 | 51.76474 | -0.27761 | 49302 ft | 737 kts | 328° |
| 2026-04-25 14:25 | 51.80393 | -0.33025 | 49260 ft | 734 kts | 308° |
| 2026-04-25 14:25 | 51.83058 | -0.40019 | 49280 ft | 732 kts | 295° |
| 2026-04-25 14:26 | 51.87901 | -0.54502 | 49233 ft | 735 kts | 302° |
| 2026-04-25 14:26 | 51.94391 | -0.67299 | 49222 ft | 737 kts | 310° |
| 2026-04-25 14:27 | 52.01128 | -0.79838 | 49211 ft | 738 kts | 310° |
| 2026-04-25 14:27 | 52.07876 | -0.92421 | 49204 ft | 739 kts | 310° |
| 2026-04-25 14:28 | 52.14633 | -1.05039 | 49203 ft | 740 kts | 310° |
| 2026-04-25 14:28 | 52.22666 | -1.15300 | 49285 ft | 746 kts | 337° |
| 2026-04-25 14:29 | 52.32475 | -1.20905 | 49236 ft | 746 kts | 338° |
| 2026-04-25 14:29 | 52.42237 | -1.26761 | 49208 ft | 747 kts | 338° |
| 2026-04-25 14:30 | 52.51966 | -1.32787 | 49185 ft | 748 kts | 338° |
| 2026-04-25 14:30 | 52.66557 | -1.41964 | 49182 ft | 748 kts | 338° |
| 2026-04-25 14:31 | 52.76275 | -1.48167 | 49214 ft | 749 kts | 338° |
| 2026-04-25 14:31 | 52.85921 | -1.54395 | 49210 ft | 749 kts | 338° |
| 2026-04-25 14:32 | 52.95634 | -1.60679 | 49209 ft | 749 kts | 338° |
| 2026-04-25 14:32 | 53.05243 | -1.67318 | 49202 ft | 746 kts | 327° |
| 2026-04-25 14:33 | 53.09198 | -1.72807 | 49247 ft | 742 kts | 309° |
| 2026-04-25 14:33 | 53.11855 | -1.80102 | 49295 ft | 739 kts | 290° |
| 2026-04-25 14:33 | 53.13063 | -1.88391 | 49306 ft | 738 kts | 278° |
| 2026-04-25 14:33 | 53.13841 | -1.96814 | 49250 ft | 726 kts | 279° |
| 2026-04-25 14:34 | 53.14844 | -2.04794 | 49215 ft | 682 kts | 283° |
| 2026-04-25 14:34 | 53.16151 | -2.12149 | 49206 ft | 646 kts | 291° |
| 2026-04-25 14:34 | 53.17796 | -2.18905 | 49206 ft | 614 kts | 290° |
| 2026-04-25 14:34 | 53.19148 | -2.25487 | 49201 ft | 585 kts | 288° |
| 2026-04-25 14:35 | 53.20484 | -2.31725 | 49203 ft | 559 kts | 290° |
| 2026-04-25 14:35 | 53.21917 | -2.37610 | 49200 ft | 534 kts | 292° |
| 2026-04-25 14:35 | 53.23386 | -2.43114 | 49205 ft | 504 kts | 294° |
| 2026-04-25 14:35 | 53.24820 | -2.48209 | 49213 ft | 465 kts | 295° |
| 2026-04-25 14:36 | 53.26168 | -2.52868 | 49202 ft | 428 kts | 295° |
| 2026-04-25 14:36 | 53.27441 | -2.57196 | 49180 ft | 403 kts | 295° |
| 2026-04-25 14:36 | 53.28652 | -2.61281 | 49191 ft | 382 kts | 295° |
| 2026-04-25 14:36 | 53.29806 | -2.65150 | 49203 ft | 363 kts | 295° |
| 2026-04-25 14:37 | 53.30908 | -2.68830 | 49206 ft | 345 kts | 295° |
| 2026-04-25 14:37 | 53.31960 | -2.72331 | 49192 ft | 329 kts | 295° |
| 2026-04-25 14:37 | 53.32974 | -2.75676 | 49064 ft | 318 kts | 296° |
| 2026-04-25 14:37 | 53.33978 | -2.78962 | 48549 ft | 318 kts | 296° |
| 2026-04-25 14:38 | 53.35001 | -2.82290 | 47833 ft | 325 kts | 296° |
| 2026-04-25 14:38 | 53.36044 | -2.85652 | 47369 ft | 323 kts | 296° |
| 2026-04-25 14:38 | 53.37074 | -2.88927 | 47206 ft | 312 kts | 296° |
| 2026-04-25 14:38 | 53.38081 | -2.92083 | 46971 ft | 304 kts | 297° |
| 2026-04-25 14:39 | 53.39071 | -2.95157 | 46469 ft | 305 kts | 297° |
| 2026-04-25 14:39 | 53.40095 | -2.98311 | 45745 ft | 313 kts | 297° |
| 2026-04-25 14:39 | 53.41186 | -3.01653 | 44150 ft | 343 kts | 297° |
| 2026-04-25 14:39 | 53.42375 | -3.05281 | 42994 ft | 361 kts | 297° |
| 2026-04-25 14:40 | 53.44662 | -3.12080 | 43782 ft | 305 kts | 298° |
| 2026-04-25 14:40 | 53.45715 | -3.15132 | 43305 ft | 305 kts | 298° |
| 2026-04-25 14:40 | 53.46825 | -3.18322 | 42043 ft | 329 kts | 299° |
| 2026-04-25 14:41 | 53.48013 | -3.21706 | 41246 ft | 339 kts | 299° |